Impacts METAR Board
IDs:

KATL - Atlanta/Hartsfield I, GA, US

Updated at: 1200 UTC 27 Feb 2021
Potential Impact None Slight Moderate High
Time 27/00Z 27/01Z 27/02Z 27/03Z 27/04Z 27/05Z 27/06Z 27/07Z 27/08Z 27/09Z 27/10Z 27/11Z 27/12Z
Temp51 51 50 50 50 50 50 50 50 50 49 48 47
Dewpt48 48 47 47 48 47 47 47 47 47 47 46 46
Altim30.11 30.13 30.13 30.13 30.16 30.17 30.14 30.15 30.15 30.14 30.15 30.17 30.17
VIS10 7 7 4 5 6 6 6 6 6 5 1 0.75
CIG7 6 5 4 5 5 5 6 6 5 5 3 2
CoverOVCOVCOVCOVCOVCOVCOVCOVCOVCOVCOVCOVCOVX
FltCatIFRIFRIFRLIFRIFRIFRIFRIFRIFRIFRIFRLIFRLIFR
WX------BRBRBRBRBRBRBRBRBRBR
WDir901001009090901201001001108080110
WSpd10 9 11 10 10 11 6 7 8 6 6 7 5
WGst-- -- -- -- -- -- -- -- -- -- -- -- --
Raw hourly METARs
KATL 262352Z 09010KT 10SM BKN007 OVC035 11/09 A3011 RMK AO2 SLP198 BINOVC 60000 T01060089 10128 20106 55001
KATL 270052Z 10009KT 7SM OVC006 11/09 A3013 RMK AO2 SLP204 T01060089
KATL 270152Z 10011KT 7SM OVC005 10/08 A3013 RMK AO2 SLP204 T01000083
KATL 270252Z 09010KT 4SM BR OVC004 10/08 A3013 RMK AO2 SLP205 T01000083 51007
KATL 270359Z 09010KT 5SM BR OVC005 10/09 A3016 RMK AO2 CIG 004V006 T01000089
KATL 270452Z 09011KT 6SM BR OVC005 10/08 A3017 RMK AO2 SLP216 T01000083 401610100
KATL 270552Z 12006KT 6SM BR OVC005 10/08 A3014 RMK AO2 SLP208 T01000083 10106 20100 50004
KATL 270652Z 10007KT 6SM BR BKN006 OVC012 10/08 A3015 RMK AO2 SLP210 CIG 005V009 T01000083
KATL 270752Z 10008KT 6SM BR OVC006 10/08 A3015 RMK AO2 SLP211 T01000083
KATL 270852Z 11006KT 6SM BR OVC005 10/08 A3014 RMK AO2 SLP208 T01000083 58001
KATL 270952Z 08006KT 5SM BR OVC005 09/08 A3015 RMK AO2 SLP212 T00940083
KATL 271052Z 08007KT 1SM R09R/P6000FT BR OVC003 09/08 A3017 RMK AO2 SFC VIS 2 1/2 SLP216 TWRINC T00890078
KATL 271152Z 11005KT 3/4SM R09R/2800V4500FT BR VV002 08/08 A3017 RMK AO2 SLP219 70013 T00830078 10100 20083 51010



Page loaded:  12:30 UTC  |   04:30 AM Pacific  |   05:30 AM Mountain  |   06:30 AM Central  |   07:30 AM Eastern

 

ADVISORIES

FORECASTS

FORECASTS

OBSERVATIONS

USER TOOLS

ABOUT US